sensor_id;sensor_type;location;lat;lon;timestamp;P1;durP1;ratioP1;P2;durP2;ratioP2
41568;SDS011;27283;52.504;13.358;2023-06-26T00:01:46;25.40;;;15.07;;
41568;SDS011;27283;52.504;13.358;2023-06-26T00:04:18;23.17;;;14.75;;
41568;SDS011;27283;52.504;13.358;2023-06-26T00:06:51;24.30;;;15.07;;
41568;SDS011;27283;52.504;13.358;2023-06-26T00:09:23;24.80;;;14.98;;
41568;SDS011;27283;52.504;13.358;2023-06-26T00:11:55;23.08;;;14.85;;
41568;SDS011;27283;52.504;13.358;2023-06-26T00:14:28;23.67;;;14.55;;
41568;SDS011;27283;52.504;13.358;2023-06-26T00:17:04;23.75;;;15.55;;
41568;SDS011;27283;52.504;13.358;2023-06-26T00:19:44;24.95;;;15.10;;
41568;SDS011;27283;52.504;13.358;2023-06-26T00:22:25;21.67;;;14.68;;
41568;SDS011;27283;52.504;13.358;2023-06-26T00:24:57;24.20;;;15.40;;
41568;SDS011;27283;52.504;13.358;2023-06-26T00:27:29;25.00;;;15.40;;
41568;SDS011;27283;52.504;13.358;2023-06-26T00:30:02;24.27;;;14.65;;
41568;SDS011;27283;52.504;13.358;2023-06-26T00:32:38;23.50;;;15.18;;
41568;SDS011;27283;52.504;13.358;2023-06-26T00:35:10;22.33;;;15.23;;
41568;SDS011;27283;52.504;13.358;2023-06-26T00:37:43;23.35;;;14.55;;
41568;SDS011;27283;52.504;13.358;2023-06-26T00:40:15;26.05;;;15.32;;
41568;SDS011;27283;52.504;13.358;2023-06-26T00:42:48;26.45;;;15.55;;
41568;SDS011;27283;52.504;13.358;2023-06-26T00:45:21;24.60;;;15.25;;
41568;SDS011;27283;52.504;13.358;2023-06-26T00:48:26;23.75;;;14.52;;
41568;SDS011;27283;52.504;13.358;2023-06-26T00:50:59;25.17;;;14.80;;
41568;SDS011;27283;52.504;13.358;2023-06-26T00:53:36;22.23;;;14.32;;
41568;SDS011;27283;52.504;13.358;2023-06-26T00:56:08;23.08;;;15.43;;
41568;SDS011;27283;52.504;13.358;2023-06-26T00:58:42;25.50;;;15.40;;
41568;SDS011;27283;52.504;13.358;2023-06-26T01:01:16;24.48;;;15.48;;
41568;SDS011;27283;52.504;13.358;2023-06-26T01:03:53;23.80;;;14.68;;
41568;SDS011;27283;52.504;13.358;2023-06-26T01:06:27;22.50;;;14.75;;
41568;SDS011;27283;52.504;13.358;2023-06-26T01:09:04;27.80;;;15.73;;
41568;SDS011;27283;52.504;13.358;2023-06-26T01:11:36;25.85;;;15.73;;
41568;SDS011;27283;52.504;13.358;2023-06-26T01:14:14;22.00;;;14.95;;
41568;SDS011;27283;52.504;13.358;2023-06-26T01:16:46;25.70;;;15.30;;
41568;SDS011;27283;52.504;13.358;2023-06-26T01:19:26;26.40;;;15.82;;
41568;SDS011;27283;52.504;13.358;2023-06-26T01:22:02;22.98;;;14.82;;
41568;SDS011;27283;52.504;13.358;2023-06-26T01:24:54;21.95;;;14.57;;
41568;SDS011;27283;52.504;13.358;2023-06-26T01:27:57;25.20;;;14.45;;
41568;SDS011;27283;52.504;13.358;2023-06-26T01:31:45;24.45;;;15.07;;
41568;SDS011;27283;52.504;13.358;2023-06-26T01:34:51;22.40;;;14.43;;
41568;SDS011;27283;52.504;13.358;2023-06-26T01:38:34;22.40;;;15.40;;
41568;SDS011;27283;52.504;13.358;2023-06-26T01:50:02;25.90;;;15.48;;
41568;SDS011;27283;52.504;13.358;2023-06-26T01:52:49;24.45;;;16.00;;
41568;SDS011;27283;52.504;13.358;2023-06-26T01:59:52;23.27;;;15.98;;
41568;SDS011;27283;52.504;13.358;2023-06-26T02:02:49;28.50;;;16.48;;
41568;SDS011;27283;52.504;13.358;2023-06-26T02:05:59;24.38;;;15.93;;
41568;SDS011;27283;52.504;13.358;2023-06-26T02:13:18;23.02;;;15.70;;
41568;SDS011;27283;52.504;13.358;2023-06-26T02:16:40;23.63;;;15.20;;
41568;SDS011;27283;52.504;13.358;2023-06-26T02:20:26;25.88;;;16.27;;
41568;SDS011;27283;52.504;13.358;2023-06-26T02:23:38;23.38;;;15.20;;
41568;SDS011;27283;52.504;13.358;2023-06-26T02:26:36;25.98;;;17.08;;
41568;SDS011;27283;52.504;13.358;2023-06-26T02:29:50;25.83;;;16.00;;
41568;SDS011;27283;52.504;13.358;2023-06-26T02:32:36;27.75;;;17.42;;
41568;SDS011;27283;52.504;13.358;2023-06-26T02:39:40;24.88;;;16.42;;
41568;SDS011;27283;52.504;13.358;2023-06-26T02:42:13;26.23;;;16.67;;
41568;SDS011;27283;52.504;13.358;2023-06-26T02:44:46;25.50;;;16.77;;
41568;SDS011;27283;52.504;13.358;2023-06-26T02:47:23;22.25;;;15.20;;
41568;SDS011;27283;52.504;13.358;2023-06-26T02:49:56;22.17;;;15.95;;
41568;SDS011;27283;52.504;13.358;2023-06-26T02:52:30;24.38;;;16.55;;
41568;SDS011;27283;52.504;13.358;2023-06-26T02:55:08;25.52;;;16.23;;
41568;SDS011;27283;52.504;13.358;2023-06-26T02:57:41;25.80;;;16.60;;
41568;SDS011;27283;52.504;13.358;2023-06-26T03:00:14;23.80;;;16.35;;
41568;SDS011;27283;52.504;13.358;2023-06-26T03:02:47;23.58;;;16.33;;
41568;SDS011;27283;52.504;13.358;2023-06-26T03:05:19;27.90;;;16.83;;
41568;SDS011;27283;52.504;13.358;2023-06-26T03:07:52;25.60;;;17.08;;
41568;SDS011;27283;52.504;13.358;2023-06-26T03:10:27;26.02;;;16.10;;
41568;SDS011;27283;52.504;13.358;2023-06-26T03:12:59;24.98;;;17.27;;
41568;SDS011;27283;52.504;13.358;2023-06-26T03:15:34;27.35;;;16.50;;
41568;SDS011;27283;52.504;13.358;2023-06-26T03:18:12;26.10;;;17.15;;
41568;SDS011;27283;52.504;13.358;2023-06-26T03:21:03;29.70;;;18.13;;
41568;SDS011;27283;52.504;13.358;2023-06-26T03:23:50;25.00;;;16.67;;
41568;SDS011;27283;52.504;13.358;2023-06-26T03:26:32;27.88;;;18.17;;
41568;SDS011;27283;52.504;13.358;2023-06-26T03:29:23;25.35;;;17.15;;
41568;SDS011;27283;52.504;13.358;2023-06-26T03:32:07;25.60;;;17.40;;
41568;SDS011;27283;52.504;13.358;2023-06-26T03:34:46;26.52;;;16.50;;
41568;SDS011;27283;52.504;13.358;2023-06-26T03:37:22;26.98;;;17.35;;
41568;SDS011;27283;52.504;13.358;2023-06-26T03:39:54;24.90;;;16.98;;
41568;SDS011;27283;52.504;13.358;2023-06-26T03:42:31;25.65;;;16.38;;
41568;SDS011;27283;52.504;13.358;2023-06-26T03:45:03;25.52;;;17.05;;
41568;SDS011;27283;52.504;13.358;2023-06-26T03:47:38;27.20;;;16.52;;
41568;SDS011;27283;52.504;13.358;2023-06-26T03:50:11;27.70;;;17.85;;
41568;SDS011;27283;52.504;13.358;2023-06-26T03:52:45;24.17;;;15.77;;
41568;SDS011;27283;52.504;13.358;2023-06-26T03:55:19;26.58;;;17.70;;
41568;SDS011;27283;52.504;13.358;2023-06-26T03:57:55;30.05;;;17.17;;
41568;SDS011;27283;52.504;13.358;2023-06-26T04:00:29;26.30;;;17.52;;
41568;SDS011;27283;52.504;13.358;2023-06-26T04:03:02;23.60;;;16.42;;
41568;SDS011;27283;52.504;13.358;2023-06-26T04:05:35;25.10;;;15.90;;
41568;SDS011;27283;52.504;13.358;2023-06-26T04:08:08;29.27;;;17.50;;
41568;SDS011;27283;52.504;13.358;2023-06-26T04:10:40;24.88;;;17.05;;
41568;SDS011;27283;52.504;13.358;2023-06-26T04:13:17;29.50;;;17.77;;
41568;SDS011;27283;52.504;13.358;2023-06-26T04:15:49;24.58;;;16.83;;
41568;SDS011;27283;52.504;13.358;2023-06-26T04:18:22;24.83;;;15.70;;
41568;SDS011;27283;52.504;13.358;2023-06-26T04:21:04;22.80;;;16.65;;
41568;SDS011;27283;52.504;13.358;2023-06-26T04:23:41;25.10;;;16.02;;
41568;SDS011;27283;52.504;13.358;2023-06-26T04:26:13;23.77;;;15.98;;
41568;SDS011;27283;52.504;13.358;2023-06-26T04:28:54;24.33;;;16.42;;
41568;SDS011;27283;52.504;13.358;2023-06-26T04:31:28;25.08;;;16.35;;
41568;SDS011;27283;52.504;13.358;2023-06-26T04:34:02;22.92;;;15.30;;
41568;SDS011;27283;52.504;13.358;2023-06-26T04:36:35;25.67;;;15.43;;
41568;SDS011;27283;52.504;13.358;2023-06-26T04:39:24;21.70;;;15.18;;
41568;SDS011;27283;52.504;13.358;2023-06-26T04:42:01;26.27;;;16.90;;
41568;SDS011;27283;52.504;13.358;2023-06-26T04:44:47;24.23;;;15.35;;
41568;SDS011;27283;52.504;13.358;2023-06-26T04:47:23;21.58;;;15.70;;
41568;SDS011;27283;52.504;13.358;2023-06-26T04:50:17;25.52;;;16.20;;
41568;SDS011;27283;52.504;13.358;2023-06-26T04:53:02;23.48;;;15.60;;
41568;SDS011;27283;52.504;13.358;2023-06-26T04:55:36;23.60;;;15.00;;
41568;SDS011;27283;52.504;13.358;2023-06-26T05:01:22;22.30;;;16.00;;
41568;SDS011;27283;52.504;13.358;2023-06-26T05:03:58;22.17;;;14.45;;
41568;SDS011;27283;52.504;13.358;2023-06-26T05:06:31;21.95;;;15.13;;
41568;SDS011;27283;52.504;13.358;2023-06-26T05:09:04;25.50;;;14.52;;
41568;SDS011;27283;52.504;13.358;2023-06-26T05:11:39;21.80;;;14.35;;
41568;SDS011;27283;52.504;13.358;2023-06-26T05:14:12;21.77;;;14.13;;
41568;SDS011;27283;52.504;13.358;2023-06-26T05:16:49;19.75;;;14.05;;
41568;SDS011;27283;52.504;13.358;2023-06-26T05:19:23;20.10;;;14.15;;
41568;SDS011;27283;52.504;13.358;2023-06-26T05:21:57;21.27;;;15.10;;
41568;SDS011;27283;52.504;13.358;2023-06-26T05:24:39;21.67;;;15.45;;
41568;SDS011;27283;52.504;13.358;2023-06-26T05:27:30;22.52;;;15.40;;
41568;SDS011;27283;52.504;13.358;2023-06-26T05:30:13;19.85;;;15.15;;
41568;SDS011;27283;52.504;13.358;2023-06-26T05:33:10;22.70;;;15.20;;
41568;SDS011;27283;52.504;13.358;2023-06-26T05:35:52;24.10;;;15.30;;
41568;SDS011;27283;52.504;13.358;2023-06-26T05:38:31;22.77;;;15.55;;
41568;SDS011;27283;52.504;13.358;2023-06-26T05:41:08;21.30;;;15.00;;
41568;SDS011;27283;52.504;13.358;2023-06-26T05:43:42;21.90;;;14.45;;
41568;SDS011;27283;52.504;13.358;2023-06-26T05:46:16;24.40;;;15.35;;
41568;SDS011;27283;52.504;13.358;2023-06-26T05:48:54;22.92;;;14.73;;
41568;SDS011;27283;52.504;13.358;2023-06-26T05:51:27;20.92;;;13.48;;
41568;SDS011;27283;52.504;13.358;2023-06-26T05:54:02;20.27;;;13.20;;
41568;SDS011;27283;52.504;13.358;2023-06-26T05:56:37;18.20;;;13.02;;
41568;SDS011;27283;52.504;13.358;2023-06-26T05:59:28;20.35;;;13.32;;
41568;SDS011;27283;52.504;13.358;2023-06-26T06:02:58;17.63;;;12.38;;
41568;SDS011;27283;52.504;13.358;2023-06-26T06:06:11;19.60;;;11.75;;
41568;SDS011;27283;52.504;13.358;2023-06-26T06:09:26;16.85;;;10.35;;
41568;SDS011;27283;52.504;13.358;2023-06-26T06:12:12;20.40;;;10.63;;
41568;SDS011;27283;52.504;13.358;2023-06-26T06:15:05;13.20;;;9.52;;
41568;SDS011;27283;52.504;13.358;2023-06-26T06:17:58;13.85;;;9.15;;
41568;SDS011;27283;52.504;13.358;2023-06-26T06:20:36;12.80;;;8.65;;
41568;SDS011;27283;52.504;13.358;2023-06-26T06:23:32;14.52;;;8.77;;
41568;SDS011;27283;52.504;13.358;2023-06-26T06:26:18;12.05;;;8.98;;
41568;SDS011;27283;52.504;13.358;2023-06-26T06:28:56;13.25;;;7.85;;
41568;SDS011;27283;52.504;13.358;2023-06-26T06:31:47;11.20;;;7.88;;
41568;SDS011;27283;52.504;13.358;2023-06-26T06:34:46;14.43;;;9.40;;
41568;SDS011;27283;52.504;13.358;2023-06-26T06:37:54;11.98;;;8.07;;
41568;SDS011;27283;52.504;13.358;2023-06-26T06:40:46;12.38;;;7.57;;
41568;SDS011;27283;52.504;13.358;2023-06-26T06:43:19;12.25;;;7.75;;
41568;SDS011;27283;52.504;13.358;2023-06-26T06:45:57;14.82;;;7.60;;
41568;SDS011;27283;52.504;13.358;2023-06-26T06:48:36;10.98;;;7.28;;
41568;SDS011;27283;52.504;13.358;2023-06-26T06:51:13;12.77;;;7.50;;
41568;SDS011;27283;52.504;13.358;2023-06-26T06:54:04;10.68;;;7.22;;
41568;SDS011;27283;52.504;13.358;2023-06-26T07:00:19;10.32;;;7.47;;
41568;SDS011;27283;52.504;13.358;2023-06-26T07:03:20;13.30;;;7.68;;
41568;SDS011;27283;52.504;13.358;2023-06-26T07:06:02;12.00;;;7.20;;
41568;SDS011;27283;52.504;13.358;2023-06-26T07:08:39;16.85;;;7.80;;
41568;SDS011;27283;52.504;13.358;2023-06-26T07:11:38;12.82;;;7.45;;
41568;SDS011;27283;52.504;13.358;2023-06-26T07:14:16;10.90;;;7.20;;
41568;SDS011;27283;52.504;13.358;2023-06-26T07:16:57;9.68;;;6.95;;
41568;SDS011;27283;52.504;13.358;2023-06-26T07:19:56;9.63;;;7.28;;
41568;SDS011;27283;52.504;13.358;2023-06-26T07:22:56;12.65;;;8.02;;
41568;SDS011;27283;52.504;13.358;2023-06-26T07:25:47;13.07;;;6.95;;
41568;SDS011;27283;52.504;13.358;2023-06-26T07:28:58;10.07;;;7.10;;
41568;SDS011;27283;52.504;13.358;2023-06-26T07:31:44;9.80;;;7.60;;
41568;SDS011;27283;52.504;13.358;2023-06-26T07:34:32;13.50;;;6.78;;
41568;SDS011;27283;52.504;13.358;2023-06-26T07:37:08;10.20;;;7.10;;
41568;SDS011;27283;52.504;13.358;2023-06-26T07:39:46;9.43;;;6.50;;
41568;SDS011;27283;52.504;13.358;2023-06-26T07:42:23;9.63;;;6.20;;
41568;SDS011;27283;52.504;13.358;2023-06-26T07:45:13;8.80;;;6.30;;
41568;SDS011;27283;52.504;13.358;2023-06-26T07:47:48;8.93;;;5.82;;
41568;SDS011;27283;52.504;13.358;2023-06-26T07:50:22;9.38;;;6.03;;
41568;SDS011;27283;52.504;13.358;2023-06-26T07:52:56;9.75;;;6.85;;
41568;SDS011;27283;52.504;13.358;2023-06-26T07:55:39;8.98;;;6.28;;
41568;SDS011;27283;52.504;13.358;2023-06-26T07:58:24;9.68;;;5.38;;
41568;SDS011;27283;52.504;13.358;2023-06-26T08:00:58;9.93;;;5.80;;
41568;SDS011;27283;52.504;13.358;2023-06-26T08:03:34;10.35;;;6.03;;
41568;SDS011;27283;52.504;13.358;2023-06-26T08:06:13;8.25;;;5.40;;
41568;SDS011;27283;52.504;13.358;2023-06-26T08:08:47;8.30;;;5.97;;
41568;SDS011;27283;52.504;13.358;2023-06-26T08:11:20;6.85;;;5.38;;
41568;SDS011;27283;52.504;13.358;2023-06-26T08:13:56;7.13;;;5.40;;
41568;SDS011;27283;52.504;13.358;2023-06-26T08:16:30;10.45;;;4.97;;
41568;SDS011;27283;52.504;13.358;2023-06-26T08:19:05;7.38;;;5.55;;
41568;SDS011;27283;52.504;13.358;2023-06-26T08:21:43;11.95;;;4.93;;
41568;SDS011;27283;52.504;13.358;2023-06-26T08:24:17;9.50;;;5.35;;
41568;SDS011;27283;52.504;13.358;2023-06-26T08:26:57;7.47;;;5.15;;
41568;SDS011;27283;52.504;13.358;2023-06-26T08:29:38;8.45;;;5.30;;
41568;SDS011;27283;52.504;13.358;2023-06-26T08:32:23;6.38;;;4.68;;
41568;SDS011;27283;52.504;13.358;2023-06-26T08:35:14;9.48;;;5.20;;
41568;SDS011;27283;52.504;13.358;2023-06-26T08:37:49;7.13;;;4.97;;
41568;SDS011;27283;52.504;13.358;2023-06-26T08:40:29;6.50;;;4.88;;
41568;SDS011;27283;52.504;13.358;2023-06-26T08:43:20;8.13;;;5.40;;
41568;SDS011;27283;52.504;13.358;2023-06-26T08:45:55;8.70;;;5.18;;
41568;SDS011;27283;52.504;13.358;2023-06-26T08:48:37;6.85;;;5.25;;
41568;SDS011;27283;52.504;13.358;2023-06-26T08:51:17;9.02;;;5.35;;
41568;SDS011;27283;52.504;13.358;2023-06-26T08:53:56;10.38;;;5.75;;
41568;SDS011;27283;52.504;13.358;2023-06-26T08:56:31;6.30;;;4.75;;
41568;SDS011;27283;52.504;13.358;2023-06-26T08:59:08;7.45;;;4.75;;
41568;SDS011;27283;52.504;13.358;2023-06-26T09:01:52;6.72;;;5.13;;
41568;SDS011;27283;52.504;13.358;2023-06-26T09:04:50;6.90;;;5.00;;
41568;SDS011;27283;52.504;13.358;2023-06-26T09:10:47;5.78;;;4.43;;
41568;SDS011;27283;52.504;13.358;2023-06-26T09:13:28;7.15;;;4.75;;
41568;SDS011;27283;52.504;13.358;2023-06-26T09:16:04;5.47;;;4.55;;
41568;SDS011;27283;52.504;13.358;2023-06-26T09:18:44;6.35;;;4.88;;
41568;SDS011;27283;52.504;13.358;2023-06-26T09:21:18;9.57;;;5.00;;
41568;SDS011;27283;52.504;13.358;2023-06-26T09:23:54;5.65;;;4.32;;
41568;SDS011;27283;52.504;13.358;2023-06-26T09:26:33;6.53;;;4.25;;
41568;SDS011;27283;52.504;13.358;2023-06-26T09:29:08;5.53;;;4.25;;
41568;SDS011;27283;52.504;13.358;2023-06-26T09:31:45;10.68;;;4.82;;
41568;SDS011;27283;52.504;13.358;2023-06-26T09:34:20;11.35;;;6.63;;
41568;SDS011;27283;52.504;13.358;2023-06-26T09:36:55;8.02;;;4.97;;
41568;SDS011;27283;52.504;13.358;2023-06-26T09:39:32;5.78;;;4.25;;
41568;SDS011;27283;52.504;13.358;2023-06-26T09:46:00;6.90;;;3.92;;
41568;SDS011;27283;52.504;13.358;2023-06-26T09:48:39;5.32;;;3.72;;
41568;SDS011;27283;52.504;13.358;2023-06-26T09:51:26;6.20;;;3.72;;
41568;SDS011;27283;52.504;13.358;2023-06-26T09:54:04;6.18;;;4.07;;
41568;SDS011;27283;52.504;13.358;2023-06-26T09:57:09;6.95;;;4.10;;
41568;SDS011;27283;52.504;13.358;2023-06-26T09:59:58;7.35;;;5.03;;
41568;SDS011;27283;52.504;13.358;2023-06-26T10:02:41;6.60;;;4.32;;
41568;SDS011;27283;52.504;13.358;2023-06-26T10:05:16;6.95;;;4.18;;
41568;SDS011;27283;52.504;13.358;2023-06-26T10:07:55;7.70;;;4.50;;
41568;SDS011;27283;52.504;13.358;2023-06-26T10:11:11;8.65;;;5.00;;
41568;SDS011;27283;52.504;13.358;2023-06-26T10:14:19;7.82;;;5.07;;
41568;SDS011;27283;52.504;13.358;2023-06-26T10:20:55;7.45;;;5.07;;
41568;SDS011;27283;52.504;13.358;2023-06-26T10:24:15;6.63;;;4.90;;
41568;SDS011;27283;52.504;13.358;2023-06-26T10:27:58;10.02;;;4.80;;
41568;SDS011;27283;52.504;13.358;2023-06-26T10:31:13;6.32;;;4.38;;
41568;SDS011;27283;52.504;13.358;2023-06-26T10:37:51;7.30;;;5.13;;
41568;SDS011;27283;52.504;13.358;2023-06-26T10:41:01;7.38;;;5.40;;
41568;SDS011;27283;52.504;13.358;2023-06-26T10:44:09;5.63;;;4.72;;
41568;SDS011;27283;52.504;13.358;2023-06-26T10:47:28;35.60;;;22.65;;
41568;SDS011;27283;52.504;13.358;2023-06-26T10:50:23;7.40;;;5.30;;
41568;SDS011;27283;52.504;13.358;2023-06-26T10:54:06;5.85;;;4.57;;
41568;SDS011;27283;52.504;13.358;2023-06-26T10:57:16;6.85;;;4.65;;
41568;SDS011;27283;52.504;13.358;2023-06-26T11:01:23;6.75;;;4.57;;
41568;SDS011;27283;52.504;13.358;2023-06-26T11:04:15;6.78;;;4.65;;
41568;SDS011;27283;52.504;13.358;2023-06-26T11:07:37;8.80;;;5.20;;
41568;SDS011;27283;52.504;13.358;2023-06-26T11:10:59;6.57;;;4.95;;
41568;SDS011;27283;52.504;13.358;2023-06-26T11:17:55;6.85;;;4.85;;
41568;SDS011;27283;52.504;13.358;2023-06-26T11:21:14;6.15;;;4.80;;
41568;SDS011;27283;52.504;13.358;2023-06-26T11:23:48;8.13;;;5.25;;
41568;SDS011;27283;52.504;13.358;2023-06-26T11:29:58;7.22;;;5.28;;
41568;SDS011;27283;52.504;13.358;2023-06-26T11:32:45;8.15;;;5.03;;
41568;SDS011;27283;52.504;13.358;2023-06-26T11:35:28;6.85;;;4.97;;
41568;SDS011;27283;52.504;13.358;2023-06-26T11:38:19;7.22;;;4.53;;
41568;SDS011;27283;52.504;13.358;2023-06-26T11:41:17;6.45;;;4.90;;
41568;SDS011;27283;52.504;13.358;2023-06-26T11:44:04;7.53;;;4.90;;
41568;SDS011;27283;52.504;13.358;2023-06-26T11:46:56;6.60;;;4.95;;
41568;SDS011;27283;52.504;13.358;2023-06-26T11:49:56;6.32;;;5.40;;
41568;SDS011;27283;52.504;13.358;2023-06-26T11:52:58;8.20;;;4.72;;
41568;SDS011;27283;52.504;13.358;2023-06-26T11:55:54;8.98;;;5.68;;
41568;SDS011;27283;52.504;13.358;2023-06-26T12:01:59;6.85;;;4.88;;
41568;SDS011;27283;52.504;13.358;2023-06-26T12:05:20;6.38;;;5.13;;
41568;SDS011;27283;52.504;13.358;2023-06-26T12:08:15;6.72;;;5.60;;
41568;SDS011;27283;52.504;13.358;2023-06-26T12:10:52;8.27;;;5.45;;
41568;SDS011;27283;52.504;13.358;2023-06-26T12:13:39;7.65;;;5.35;;
41568;SDS011;27283;52.504;13.358;2023-06-26T12:24:08;7.78;;;5.85;;
41568;SDS011;27283;52.504;13.358;2023-06-26T12:27:16;8.63;;;5.53;;
41568;SDS011;27283;52.504;13.358;2023-06-26T12:34:27;9.00;;;5.70;;
41568;SDS011;27283;52.504;13.358;2023-06-26T12:37:50;8.43;;;5.65;;
41568;SDS011;27283;52.504;13.358;2023-06-26T12:41:17;10.10;;;5.60;;
41568;SDS011;27283;52.504;13.358;2023-06-26T12:44:16;6.93;;;5.78;;
41568;SDS011;27283;52.504;13.358;2023-06-26T12:47:41;9.77;;;6.00;;
41568;SDS011;27283;52.504;13.358;2023-06-26T12:50:38;9.38;;;5.70;;
41568;SDS011;27283;52.504;13.358;2023-06-26T12:56:55;9.55;;;6.65;;
41568;SDS011;27283;52.504;13.358;2023-06-26T12:59:38;10.80;;;6.25;;
41568;SDS011;27283;52.504;13.358;2023-06-26T13:02:42;11.18;;;6.78;;
41568;SDS011;27283;52.504;13.358;2023-06-26T13:05:24;12.52;;;9.00;;
41568;SDS011;27283;52.504;13.358;2023-06-26T13:08:04;13.55;;;8.82;;
41568;SDS011;27283;52.504;13.358;2023-06-26T13:13:35;9.43;;;6.47;;
41568;SDS011;27283;52.504;13.358;2023-06-26T13:16:34;9.68;;;6.68;;
41568;SDS011;27283;52.504;13.358;2023-06-26T13:19:21;7.78;;;6.10;;
41568;SDS011;27283;52.504;13.358;2023-06-26T13:21:56;11.77;;;7.93;;
41568;SDS011;27283;52.504;13.358;2023-06-26T13:24:33;10.50;;;7.22;;
41568;SDS011;27283;52.504;13.358;2023-06-26T13:27:09;11.23;;;6.75;;
41568;SDS011;27283;52.504;13.358;2023-06-26T13:33:26;8.88;;;6.43;;
41568;SDS011;27283;52.504;13.358;2023-06-26T13:36:32;9.77;;;7.22;;
41568;SDS011;27283;52.504;13.358;2023-06-26T13:39:37;13.80;;;7.28;;
41568;SDS011;27283;52.504;13.358;2023-06-26T13:42:35;9.15;;;7.20;;
41568;SDS011;27283;52.504;13.358;2023-06-26T13:48:24;10.85;;;7.10;;
41568;SDS011;27283;52.504;13.358;2023-06-26T13:50:59;12.40;;;7.30;;
41568;SDS011;27283;52.504;13.358;2023-06-26T13:54:00;11.25;;;6.85;;
41568;SDS011;27283;52.504;13.358;2023-06-26T13:56:52;13.23;;;7.20;;
41568;SDS011;27283;52.504;13.358;2023-06-26T14:03:04;11.80;;;7.05;;
41568;SDS011;27283;52.504;13.358;2023-06-26T14:06:22;14.65;;;7.38;;
41568;SDS011;27283;52.504;13.358;2023-06-26T14:09:19;11.77;;;6.90;;
41568;SDS011;27283;52.504;13.358;2023-06-26T14:12:30;9.68;;;7.15;;
41568;SDS011;27283;52.504;13.358;2023-06-26T14:15:33;10.57;;;7.53;;
41568;SDS011;27283;52.504;13.358;2023-06-26T14:18:54;11.02;;;6.10;;
41568;SDS011;27283;52.504;13.358;2023-06-26T14:21:56;24.70;;;7.13;;
41568;SDS011;27283;52.504;13.358;2023-06-26T14:24:53;20.38;;;7.10;;
41568;SDS011;27283;52.504;13.358;2023-06-26T14:27:56;24.58;;;7.30;;
41568;SDS011;27283;52.504;13.358;2023-06-26T14:31:21;31.27;;;10.73;;
41568;SDS011;27283;52.504;13.358;2023-06-26T14:34:29;19.38;;;7.88;;
41568;SDS011;27283;52.504;13.358;2023-06-26T14:37:18;43.50;;;12.90;;
41568;SDS011;27283;52.504;13.358;2023-06-26T14:40:06;29.27;;;15.02;;
41568;SDS011;27283;52.504;13.358;2023-06-26T14:43:07;28.73;;;17.17;;
41568;SDS011;27283;52.504;13.358;2023-06-26T14:46:08;31.23;;;18.85;;
41568;SDS011;27283;52.504;13.358;2023-06-26T15:18:03;18.35;;;11.18;;
41568;SDS011;27283;52.504;13.358;2023-06-26T15:21:17;25.38;;;14.07;;
41568;SDS011;27283;52.504;13.358;2023-06-26T15:24:09;26.75;;;14.75;;
41568;SDS011;27283;52.504;13.358;2023-06-26T15:36:31;22.10;;;13.75;;
41568;SDS011;27283;52.504;13.358;2023-06-26T15:39:11;18.17;;;11.55;;
41568;SDS011;27283;52.504;13.358;2023-06-26T15:42:07;19.02;;;12.43;;
41568;SDS011;27283;52.504;13.358;2023-06-26T15:45:12;20.08;;;12.18;;
41568;SDS011;27283;52.504;13.358;2023-06-26T15:48:14;18.42;;;11.60;;
41568;SDS011;27283;52.504;13.358;2023-06-26T15:51:13;20.27;;;13.23;;
41568;SDS011;27283;52.504;13.358;2023-06-26T15:57:32;25.98;;;15.90;;
41568;SDS011;27283;52.504;13.358;2023-06-26T16:00:55;23.80;;;15.75;;
41568;SDS011;27283;52.504;13.358;2023-06-26T16:03:57;27.98;;;14.57;;
41568;SDS011;27283;52.504;13.358;2023-06-26T16:06:31;25.52;;;16.48;;
41568;SDS011;27283;52.504;13.358;2023-06-26T16:09:05;20.58;;;12.88;;
41568;SDS011;27283;52.504;13.358;2023-06-26T16:11:38;22.88;;;12.40;;
41568;SDS011;27283;52.504;13.358;2023-06-26T16:14:19;20.40;;;12.77;;
41568;SDS011;27283;52.504;13.358;2023-06-26T16:17:01;18.67;;;13.18;;
41568;SDS011;27283;52.504;13.358;2023-06-26T16:19:36;20.10;;;12.85;;
41568;SDS011;27283;52.504;13.358;2023-06-26T16:22:10;18.85;;;12.00;;
41568;SDS011;27283;52.504;13.358;2023-06-26T16:25:14;20.02;;;12.90;;
41568;SDS011;27283;52.504;13.358;2023-06-26T16:28:07;19.15;;;12.70;;
41568;SDS011;27283;52.504;13.358;2023-06-26T16:30:48;21.92;;;13.23;;
41568;SDS011;27283;52.504;13.358;2023-06-26T16:33:22;20.02;;;13.57;;
41568;SDS011;27283;52.504;13.358;2023-06-26T16:35:57;24.88;;;14.45;;
41568;SDS011;27283;52.504;13.358;2023-06-26T16:38:36;21.70;;;14.52;;
41568;SDS011;27283;52.504;13.358;2023-06-26T16:41:16;23.63;;;14.82;;
41568;SDS011;27283;52.504;13.358;2023-06-26T16:43:49;22.90;;;14.90;;
41568;SDS011;27283;52.504;13.358;2023-06-26T16:46:27;25.23;;;16.35;;
41568;SDS011;27283;52.504;13.358;2023-06-26T16:49:00;24.05;;;14.70;;
41568;SDS011;27283;52.504;13.358;2023-06-26T16:51:32;24.67;;;16.05;;
41568;SDS011;27283;52.504;13.358;2023-06-26T16:54:05;27.48;;;16.95;;
41568;SDS011;27283;52.504;13.358;2023-06-26T16:56:38;31.17;;;17.08;;
41568;SDS011;27283;52.504;13.358;2023-06-26T16:59:28;24.45;;;15.70;;
41568;SDS011;27283;52.504;13.358;2023-06-26T17:02:31;23.52;;;14.48;;
41568;SDS011;27283;52.504;13.358;2023-06-26T17:05:05;22.95;;;14.05;;
41568;SDS011;27283;52.504;13.358;2023-06-26T17:07:40;24.55;;;12.95;;
41568;SDS011;27283;52.504;13.358;2023-06-26T17:10:13;19.95;;;13.00;;
41568;SDS011;27283;52.504;13.358;2023-06-26T17:12:46;18.75;;;12.65;;
41568;SDS011;27283;52.504;13.358;2023-06-26T17:15:18;20.38;;;12.50;;
41568;SDS011;27283;52.504;13.358;2023-06-26T17:17:53;20.35;;;12.73;;
41568;SDS011;27283;52.504;13.358;2023-06-26T17:20:27;21.17;;;12.13;;
41568;SDS011;27283;52.504;13.358;2023-06-26T17:23:02;20.73;;;11.68;;
41568;SDS011;27283;52.504;13.358;2023-06-26T17:25:38;21.02;;;11.77;;
41568;SDS011;27283;52.504;13.358;2023-06-26T17:28:11;18.20;;;10.80;;
41568;SDS011;27283;52.504;13.358;2023-06-26T17:30:44;17.33;;;10.55;;
41568;SDS011;27283;52.504;13.358;2023-06-26T17:33:40;23.10;;;12.32;;
41568;SDS011;27283;52.504;13.358;2023-06-26T17:36:15;20.52;;;11.57;;
41568;SDS011;27283;52.504;13.358;2023-06-26T17:38:48;20.42;;;10.27;;
41568;SDS011;27283;52.504;13.358;2023-06-26T17:41:22;17.98;;;10.65;;
41568;SDS011;27283;52.504;13.358;2023-06-26T17:43:55;20.38;;;11.13;;
41568;SDS011;27283;52.504;13.358;2023-06-26T17:46:28;20.88;;;11.27;;
41568;SDS011;27283;52.504;13.358;2023-06-26T17:49:03;18.40;;;10.07;;
41568;SDS011;27283;52.504;13.358;2023-06-26T17:51:55;18.58;;;10.45;;
41568;SDS011;27283;52.504;13.358;2023-06-26T17:54:30;17.08;;;9.68;;
41568;SDS011;27283;52.504;13.358;2023-06-26T17:57:03;19.23;;;11.05;;
41568;SDS011;27283;52.504;13.358;2023-06-26T17:59:35;20.83;;;10.10;;
41568;SDS011;27283;52.504;13.358;2023-06-26T18:02:08;19.95;;;10.55;;
41568;SDS011;27283;52.504;13.358;2023-06-26T18:04:43;16.17;;;9.65;;
41568;SDS011;27283;52.504;13.358;2023-06-26T18:07:16;16.63;;;10.55;;
41568;SDS011;27283;52.504;13.358;2023-06-26T18:09:50;23.05;;;9.15;;
41568;SDS011;27283;52.504;13.358;2023-06-26T18:12:23;18.38;;;10.90;;